Grande Senegal — ICEU — position and weather

sailwx.info

Track history (hours):
 
Tides and Currents Weather Stations Pressure Air Temp Water Temp Dewpoint Dewpoint Depression Visibility Wind Speed Wind Dir Waves Ship Positions

Grande Senegal

Last reported at 2017-Nov-02 07:30 UTC. Time now 2017-Nov-22 03:44 UTC.
Position N 39°35' W 072°43'.
Warning: this ship's position is 19 days out of date.

Length 210 m; draft 9.6 m.

Type: Cargo ship. MMSI: 247285500.

Date/timePositionNaut miles runAvg speedWind from/ knotsBaromVisibWave heightAir tempDewpointWater temp
2017-Nov-02 07:30N 39°35' W 072°43'714.3
2017-Nov-02 06:59N 39°40' W 072°50'1014.2
2017-Nov-02 06:15N 39°47' W 073°00'514.1
2017-Nov-02 05:52N 39°50' W 073°06'514.1
2017-Nov-02 05:30N 39°54' W 073°10'714.2
2017-Nov-02 04:59N 39°59' W 073°17'3 5.2
2017-Nov-02 04:22N 40°01' W 073°21'3 9.5
2017-Nov-02 04:01N 40°04' W 073°23'2410.6
2017-Nov-02 01:44N 40°22' W 073°44'2 9.3
2017-Nov-02 01:30N 40°24' W 073°46'4 8.6
2017-Nov-02 01:00N 40°27' W 073°50'4 9.1
2017-Nov-02 00:30N 40°29' W 073°55'612.6
2017-Nov-02 00:00N 40°33' W 074°02'713.1
2017-Nov-01 23:30N 40°39' W 074°03'2 3.1
2017-Nov-01 22:58N 40°40' W 074°05'0 0.0
2017-Nov-01 22:28N 40°40' W 074°05'0 0.0
2017-Nov-01 21:58N 40°40' W 074°05'0 0.0
2017-Nov-01 21:28N 40°40' W 074°05'0 0.0
2017-Nov-01 20:58N 40°40' W 074°05'0 0.0
2017-Nov-01 20:28N 40°40' W 074°05'0 0.0
2017-Nov-01 19:58N 40°40' W 074°05'0 0.0
2017-Nov-01 19:28N 40°40' W 074°05'0 0.0
2017-Nov-01 18:58N 40°40' W 074°05'0 0.0
2017-Nov-01 18:28N 40°40' W 074°05'5 0.3
2017-Nov-01 02:00N 40°39' W 074°11'0 0.9
2017-Nov-01 01:25N 40°38' W 074°11'0 0.0
2017-Nov-01 00:55N 40°38' W 074°11'0 0.0
2017-Nov-01 00:28N 40°38' W 074°11'0 0.0
2017-Oct-31 23:58N 40°38' W 074°11'0 0.0
2017-Oct-31 23:19N 40°38' W 074°11'0 0.0
2017-Oct-31 22:58N 40°38' W 074°11'0 0.0
2017-Oct-31 22:28N 40°38' W 074°11'0 0.0
2017-Oct-31 21:55N 40°38' W 074°11'0 0.0
2017-Oct-31 21:28N 40°38' W 074°11'0 0.0
2017-Oct-31 20:58N 40°38' W 074°11'0 0.0
2017-Oct-31 20:28N 40°38' W 074°11'0 0.0
2017-Oct-31 19:58N 40°38' W 074°11'0 0.0
2017-Oct-31 19:28N 40°38' W 074°11'0 0.0
2017-Oct-31 18:58N 40°38' W 074°11'0 0.0
2017-Oct-31 18:28N 40°38' W 074°11'0 0.0
2017-Oct-31 17:58N 40°38' W 074°11'0 0.0
2017-Oct-31 17:22N 40°38' W 074°11'0 0.0
2017-Oct-31 16:55N 40°38' W 074°11'0 0.0
2017-Oct-31 16:28N 40°38' W 074°11'0 0.0
2017-Oct-31 15:58N 40°38' W 074°11'0 0.0
2017-Oct-31 15:28N 40°38' W 074°11'0 0.0
2017-Oct-31 14:58N 40°38' W 074°11'0 0.0
2017-Oct-31 14:28N 40°38' W 074°11'0 0.0
2017-Oct-31 13:58N 40°38' W 074°11'0 0.0
2017-Oct-31 13:28N 40°38' W 074°11'0 0.0
2017-Oct-31 12:58N 40°38' W 074°11'0 0.0
2017-Oct-31 12:28N 40°38' W 074°11'0 0.0
2017-Oct-31 11:55N 40°38' W 074°11'0 0.0
2017-Oct-31 11:28N 40°38' W 074°11'0 0.0
2017-Oct-31 10:49N 40°38' W 074°11'0 0.0
2017-Oct-31 10:28N 40°38' W 074°11'0 0.0
2017-Oct-31 09:55N 40°38' W 074°11'0 0.0
2017-Oct-31 09:19N 40°38' W 074°11'0 0.0
2017-Oct-31 08:58N 40°38' W 074°11'0 0.0
2017-Oct-31 08:19N 40°38' W 074°11'0 0.0
2017-Oct-31 07:58N 40°38' W 074°11'0 0.0
2017-Oct-31 07:25N 40°38' W 074°11'0 0.0
2017-Oct-31 06:55N 40°38' W 074°11'0 0.0
2017-Oct-31 06:25N 40°38' W 074°11'0 0.0
2017-Oct-31 05:55N 40°38' W 074°11'0 0.0
2017-Oct-31 05:25N 40°38' W 074°11'0 0.0
2017-Oct-31 04:58N 40°38' W 074°11'0 0.2
2017-Oct-31 04:30N 40°38' W 074°11'2 3.3
2017-Oct-31 04:00N 40°39' W 074°09'3 5.1
2017-Oct-31 03:30N 40°39' W 074°06'3 5.5
2017-Oct-31 03:00N 40°37' W 074°03'611.6
2017-Oct-31 02:30N 40°32' W 074°01'713.4
2017-Oct-31 01:59N 40°28' W 073°52'  
2017-Oct-28 09:24N 36°51' W 075°52'410.4
2017-Oct-28 09:00N 36°54' W 075°55'5 9.9
2017-Oct-28 08:30N 36°57' W 075°60'713.7
2017-Oct-28 08:00N 37°03' W 076°05'3715.8
2017-Oct-28 05:40N 37°40' W 076°09'6116.9
2017-Oct-28 02:04N 38°39' W 076°25'117.2
2017-Oct-28 01:59N 38°41' W 076°25'816.9
2017-Oct-28 01:29N 38°49' W 076°24'715.5
2017-Oct-28 01:00N 38°57' W 076°23'713.9
2017-Oct-28 00:31N 39°03' W 076°23'612.7
2017-Oct-28 00:01N 39°10' W 076°25'510.9
2017-Oct-27 23:31N 39°13' W 076°31'2 3.8
2017-Oct-27 22:59N 39°15' W 076°31'0 0.0
2017-Oct-27 22:29N 39°15' W 076°31'0 0.0
2017-Oct-27 21:59N 39°15' W 076°31'0 0.0
2017-Oct-27 21:29N 39°15' W 076°31'0 0.0
2017-Oct-27 20:59N 39°15' W 076°31'0 0.0
2017-Oct-27 20:29N 39°15' W 076°31'0 0.0
2017-Oct-27 19:59N 39°15' W 076°31'0 0.0
2017-Oct-27 19:29N 39°15' W 076°31'0 0.0
2017-Oct-27 18:59N 39°15' W 076°31'0 0.0
2017-Oct-27 18:29N 39°15' W 076°31'0 0.0
2017-Oct-27 17:59N 39°15' W 076°31'0 0.0
2017-Oct-27 17:29N 39°15' W 076°31'0 0.0
2017-Oct-27 16:59N 39°15' W 076°31'0 0.0
2017-Oct-27 16:29N 39°15' W 076°31'0 0.0
2017-Oct-27 15:59N 39°15' W 076°31'0 0.0
2017-Oct-27 15:29N 39°15' W 076°31'0 0.0
2017-Oct-27 14:59N 39°15' W 076°31'0 0.0
2017-Oct-27 14:29N 39°15' W 076°31'0 0.0
2017-Oct-27 13:59N 39°15' W 076°31'0 0.0
2017-Oct-27 13:29N 39°15' W 076°31'0 0.0
2017-Oct-27 12:59N 39°15' W 076°31'0 0.0
2017-Oct-27 12:29N 39°15' W 076°31'0 0.0
2017-Oct-27 11:59N 39°15' W 076°31'0 0.0
2017-Oct-27 11:29N 39°15' W 076°31'0 0.0
2017-Oct-27 10:59N 39°15' W 076°31'0 0.0
2017-Oct-27 10:29N 39°15' W 076°31'0 0.0
2017-Oct-27 09:59N 39°15' W 076°31'0 0.0
2017-Oct-27 09:29N 39°15' W 076°31'0 0.0
2017-Oct-27 08:59N 39°15' W 076°31'0 0.0
2017-Oct-27 08:29N 39°15' W 076°31'0 0.0
2017-Oct-27 07:59N 39°15' W 076°31'0 0.0
2017-Oct-27 07:29N 39°15' W 076°31'0 0.0
2017-Oct-27 06:59N 39°15' W 076°31'0 0.0
2017-Oct-27 06:29N 39°15' W 076°31'0 0.0
2017-Oct-27 05:59N 39°15' W 076°31'0 0.0
2017-Oct-27 05:29N 39°15' W 076°31'0 0.0
2017-Oct-27 04:56N 39°15' W 076°31'0 0.0
2017-Oct-27 04:29N 39°15' W 076°31'0 0.0
2017-Oct-27 04:00N 39°14' W 076°32'0 0.9
2017-Oct-27 03:30N 39°14' W 076°32'1 2.8
2017-Oct-27 03:00N 39°13' W 076°32'3 6.0
2017-Oct-27 02:30N 39°11' W 076°28'510.5
2017-Oct-27 02:00N 39°08' W 076°24'714.3
2017-Oct-27 01:31N 39°00' W 076°23'917.3
2017-Oct-27 01:00N 38°52' W 076°24'918.4
2017-Oct-27 00:30N 38°43' W 076°26'4017.9
2017-Oct-26 22:16N 38°04' W 076°13'5616.9
2017-Oct-26 18:57N 37°08' W 076°09'818.2
2017-Oct-26 18:30N 37°01' W 076°03'815.9
2017-Oct-26 18:00N 36°56' W 075°56'371 9.4
2017-Oct-25 02:28N 31°57' W 080°23'714.7
2017-Oct-25 02:01N 31°56' W 080°31'714.2
2017-Oct-25 01:30N 31°57' W 080°39'713.3
2017-Oct-25 01:01N 31°59' W 080°46'612.9
2017-Oct-25 00:30N 32°02' W 080°53'611.4
2017-Oct-25 00:00N 32°05' W 080°59'4 8.4
2017-Oct-24 23:30N 32°05' W 081°04'2 3.1
2017-Oct-24 22:56N 32°05' W 081°06'0 0.0
2017-Oct-24 22:26N 32°05' W 081°06'0 0.0
2017-Oct-24 21:56N 32°05' W 081°06'0 0.0
2017-Oct-24 21:20N 32°05' W 081°06'0 0.0
2017-Oct-24 20:56N 32°05' W 081°06'0 0.0
2017-Oct-24 20:26N 32°05' W 081°06'0 0.0
2017-Oct-24 19:56N 32°05' W 081°06'0 0.0
2017-Oct-24 19:26N 32°05' W 081°06'0 0.0
2017-Oct-24 18:56N 32°05' W 081°06'0 0.0
2017-Oct-24 18:26N 32°05' W 081°06'0 0.0
2017-Oct-24 17:56N 32°05' W 081°06'0 0.0
2017-Oct-24 17:26N 32°05' W 081°06'0 0.0
2017-Oct-24 16:56N 32°05' W 081°06'0 0.0
2017-Oct-24 16:26N 32°05' W 081°06'0 0.0
2017-Oct-24 15:56N 32°05' W 081°06'0 0.0
2017-Oct-24 15:26N 32°05' W 081°06'0 0.0
2017-Oct-24 14:56N 32°05' W 081°06'0 0.0
2017-Oct-24 14:26N 32°05' W 081°06'0 0.0
2017-Oct-24 13:56N 32°05' W 081°06'0 0.0
2017-Oct-24 13:26N 32°05' W 081°06'0 0.0
2017-Oct-24 12:50N 32°05' W 081°06'0 0.0
2017-Oct-24 12:26N 32°05' W 081°06'0 0.0
2017-Oct-24 11:56N 32°05' W 081°06'0 0.0
2017-Oct-24 11:20N 32°05' W 081°06'0 0.0
2017-Oct-24 10:56N 32°05' W 081°06'0 0.0
2017-Oct-24 10:30N 32°05' W 081°06'2 3.3
2017-Oct-24 10:00N 32°07' W 081°07'2 3.3
2017-Oct-24 09:30N 32°05' W 081°06'3 5.0
2017-Oct-24 09:00N 32°05' W 081°03'4 8.2
2017-Oct-24 08:30N 32°04' W 080°58'510.6
2017-Oct-24 08:00N 32°02' W 080°53'612.9
2017-Oct-24 07:30N 31°59' W 080°46'612.0
2017-Oct-24 07:01N 31°57' W 080°39'612.7
2017-Oct-24 06:30N 31°57' W 080°32'  
Track history (hours):
 
Tides and Currents Weather Stations Pressure Air Temp Water Temp Dewpoint Dewpoint Depression Visibility Wind Speed Wind Dir Waves Ship Positions

Grande Senegal

Last reported at 2017-Nov-02 07:30 UTC. Time now 2017-Nov-22 03:44 UTC.
Position N 39°35' W 072°43'.
Warning: this ship's position is 19 days out of date.

Length 210 m; draft 9.6 m.

Type: Cargo ship. MMSI: 247285500.

Date/timePositionNaut miles runAvg speedWind from/ knotsBaromVisibWave heightAir tempDewpointWater temp
2017-Nov-02 07:30N 39°35' W 072°43'714.3
2017-Nov-02 06:59N 39°40' W 072°50'1014.2
2017-Nov-02 06:15N 39°47' W 073°00'514.1
2017-Nov-02 05:52N 39°50' W 073°06'514.1
2017-Nov-02 05:30N 39°54' W 073°10'714.2
2017-Nov-02 04:59N 39°59' W 073°17'3 5.2
2017-Nov-02 04:22N 40°01' W 073°21'3 9.5
2017-Nov-02 04:01N 40°04' W 073°23'2410.6
2017-Nov-02 01:44N 40°22' W 073°44'2 9.3
2017-Nov-02 01:30N 40°24' W 073°46'4 8.6
2017-Nov-02 01:00N 40°27' W 073°50'4 9.1
2017-Nov-02 00:30N 40°29' W 073°55'612.6
2017-Nov-02 00:00N 40°33' W 074°02'713.1
2017-Nov-01 23:30N 40°39' W 074°03'2 3.1
2017-Nov-01 22:58N 40°40' W 074°05'0 0.0
2017-Nov-01 22:28N 40°40' W 074°05'0 0.0
2017-Nov-01 21:58N 40°40' W 074°05'0 0.0
2017-Nov-01 21:28N 40°40' W 074°05'0 0.0
2017-Nov-01 20:58N 40°40' W 074°05'0 0.0
2017-Nov-01 20:28N 40°40' W 074°05'0 0.0
2017-Nov-01 19:58N 40°40' W 074°05'0 0.0
2017-Nov-01 19:28N 40°40' W 074°05'0 0.0
2017-Nov-01 18:58N 40°40' W 074°05'0 0.0
2017-Nov-01 18:28N 40°40' W 074°05'5 0.3
2017-Nov-01 02:00N 40°39' W 074°11'0 0.9
2017-Nov-01 01:25N 40°38' W 074°11'0 0.0
2017-Nov-01 00:55N 40°38' W 074°11'0 0.0
2017-Nov-01 00:28N 40°38' W 074°11'0 0.0
2017-Oct-31 23:58N 40°38' W 074°11'0 0.0
2017-Oct-31 23:19N 40°38' W 074°11'0 0.0
2017-Oct-31 22:58N 40°38' W 074°11'0 0.0
2017-Oct-31 22:28N 40°38' W 074°11'0 0.0
2017-Oct-31 21:55N 40°38' W 074°11'0 0.0
2017-Oct-31 21:28N 40°38' W 074°11'0 0.0
2017-Oct-31 20:58N 40°38' W 074°11'0 0.0
2017-Oct-31 20:28N 40°38' W 074°11'0 0.0
2017-Oct-31 19:58N 40°38' W 074°11'0 0.0
2017-Oct-31 19:28N 40°38' W 074°11'0 0.0
2017-Oct-31 18:58N 40°38' W 074°11'0 0.0
2017-Oct-31 18:28N 40°38' W 074°11'0 0.0
2017-Oct-31 17:58N 40°38' W 074°11'0 0.0
2017-Oct-31 17:22N 40°38' W 074°11'0 0.0
2017-Oct-31 16:55N 40°38' W 074°11'0 0.0
2017-Oct-31 16:28N 40°38' W 074°11'0 0.0
2017-Oct-31 15:58N 40°38' W 074°11'0 0.0
2017-Oct-31 15:28N 40°38' W 074°11'0 0.0
2017-Oct-31 14:58N 40°38' W 074°11'0 0.0
2017-Oct-31 14:28N 40°38' W 074°11'0 0.0
2017-Oct-31 13:58N 40°38' W 074°11'0 0.0
2017-Oct-31 13:28N 40°38' W 074°11'0 0.0
2017-Oct-31 12:58N 40°38' W 074°11'0 0.0
2017-Oct-31 12:28N 40°38' W 074°11'0 0.0
2017-Oct-31 11:55N 40°38' W 074°11'0 0.0
2017-Oct-31 11:28N 40°38' W 074°11'0 0.0
2017-Oct-31 10:49N 40°38' W 074°11'0 0.0
2017-Oct-31 10:28N 40°38' W 074°11'0 0.0
2017-Oct-31 09:55N 40°38' W 074°11'0 0.0
2017-Oct-31 09:19N 40°38' W 074°11'0 0.0
2017-Oct-31 08:58N 40°38' W 074°11'0 0.0
2017-Oct-31 08:19N 40°38' W 074°11'0 0.0
2017-Oct-31 07:58N 40°38' W 074°11'0 0.0
2017-Oct-31 07:25N 40°38' W 074°11'0 0.0
2017-Oct-31 06:55N 40°38' W 074°11'0 0.0
2017-Oct-31 06:25N 40°38' W 074°11'0 0.0
2017-Oct-31 05:55N 40°38' W 074°11'0 0.0
2017-Oct-31 05:25N 40°38' W 074°11'0 0.0
2017-Oct-31 04:58N 40°38' W 074°11'0 0.2
2017-Oct-31 04:30N 40°38' W 074°11'2 3.3
2017-Oct-31 04:00N 40°39' W 074°09'3 5.1
2017-Oct-31 03:30N 40°39' W 074°06'3 5.5
2017-Oct-31 03:00N 40°37' W 074°03'611.6
2017-Oct-31 02:30N 40°32' W 074°01'713.4
2017-Oct-31 01:59N 40°28' W 073°52'  
2017-Oct-28 09:24N 36°51' W 075°52'410.4
2017-Oct-28 09:00N 36°54' W 075°55'5 9.9
2017-Oct-28 08:30N 36°57' W 075°60'713.7
2017-Oct-28 08:00N 37°03' W 076°05'3715.8
2017-Oct-28 05:40N 37°40' W 076°09'6116.9
2017-Oct-28 02:04N 38°39' W 076°25'117.2
2017-Oct-28 01:59N 38°41' W 076°25'816.9
2017-Oct-28 01:29N 38°49' W 076°24'715.5
2017-Oct-28 01:00N 38°57' W 076°23'713.9
2017-Oct-28 00:31N 39°03' W 076°23'612.7
2017-Oct-28 00:01N 39°10' W 076°25'510.9
2017-Oct-27 23:31N 39°13' W 076°31'2 3.8
2017-Oct-27 22:59N 39°15' W 076°31'0 0.0
2017-Oct-27 22:29N 39°15' W 076°31'0 0.0
2017-Oct-27 21:59N 39°15' W 076°31'0 0.0
2017-Oct-27 21:29N 39°15' W 076°31'0 0.0
2017-Oct-27 20:59N 39°15' W 076°31'0 0.0
2017-Oct-27 20:29N 39°15' W 076°31'0 0.0
2017-Oct-27 19:59N 39°15' W 076°31'0 0.0
2017-Oct-27 19:29N 39°15' W 076°31'0 0.0
2017-Oct-27 18:59N 39°15' W 076°31'0 0.0
2017-Oct-27 18:29N 39°15' W 076°31'0 0.0
2017-Oct-27 17:59N 39°15' W 076°31'0 0.0
2017-Oct-27 17:29N 39°15' W 076°31'0 0.0
2017-Oct-27 16:59N 39°15' W 076°31'0 0.0
2017-Oct-27 16:29N 39°15' W 076°31'0 0.0
2017-Oct-27 15:59N 39°15' W 076°31'0 0.0
2017-Oct-27 15:29N 39°15' W 076°31'0 0.0
2017-Oct-27 14:59N 39°15' W 076°31'0 0.0
2017-Oct-27 14:29N 39°15' W 076°31'0 0.0
2017-Oct-27 13:59N 39°15' W 076°31'0 0.0
2017-Oct-27 13:29N 39°15' W 076°31'0 0.0
2017-Oct-27 12:59N 39°15' W 076°31'0 0.0
2017-Oct-27 12:29N 39°15' W 076°31'0 0.0
2017-Oct-27 11:59N 39°15' W 076°31'0 0.0
2017-Oct-27 11:29N 39°15' W 076°31'0 0.0
2017-Oct-27 10:59N 39°15' W 076°31'0 0.0
2017-Oct-27 10:29N 39°15' W 076°31'0 0.0
2017-Oct-27 09:59N 39°15' W 076°31'0 0.0
2017-Oct-27 09:29N 39°15' W 076°31'0 0.0
2017-Oct-27 08:59N 39°15' W 076°31'0 0.0
2017-Oct-27 08:29N 39°15' W 076°31'0 0.0
2017-Oct-27 07:59N 39°15' W 076°31'0 0.0
2017-Oct-27 07:29N 39°15' W 076°31'0 0.0
2017-Oct-27 06:59N 39°15' W 076°31'0 0.0
2017-Oct-27 06:29N 39°15' W 076°31'0 0.0
2017-Oct-27 05:59N 39°15' W 076°31'0 0.0
2017-Oct-27 05:29N 39°15' W 076°31'0 0.0
2017-Oct-27 04:56N 39°15' W 076°31'0 0.0
2017-Oct-27 04:29N 39°15' W 076°31'0 0.0
2017-Oct-27 04:00N 39°14' W 076°32'0 0.9
2017-Oct-27 03:30N 39°14' W 076°32'1 2.8
2017-Oct-27 03:00N 39°13' W 076°32'3 6.0
2017-Oct-27 02:30N 39°11' W 076°28'510.5
2017-Oct-27 02:00N 39°08' W 076°24'714.3
2017-Oct-27 01:31N 39°00' W 076°23'917.3
2017-Oct-27 01:00N 38°52' W 076°24'918.4
2017-Oct-27 00:30N 38°43' W 076°26'4017.9
2017-Oct-26 22:16N 38°04' W 076°13'5616.9
2017-Oct-26 18:57N 37°08' W 076°09'818.2
2017-Oct-26 18:30N 37°01' W 076°03'815.9
2017-Oct-26 18:00N 36°56' W 075°56'371 9.4
2017-Oct-25 02:28N 31°57' W 080°23'714.7
2017-Oct-25 02:01N 31°56' W 080°31'714.2
2017-Oct-25 01:30N 31°57' W 080°39'713.3
2017-Oct-25 01:01N 31°59' W 080°46'612.9
2017-Oct-25 00:30N 32°02' W 080°53'611.4
2017-Oct-25 00:00N 32°05' W 080°59'4 8.4
2017-Oct-24 23:30N 32°05' W 081°04'2 3.1
2017-Oct-24 22:56N 32°05' W 081°06'0 0.0
2017-Oct-24 22:26N 32°05' W 081°06'0 0.0
2017-Oct-24 21:56N 32°05' W 081°06'0 0.0
2017-Oct-24 21:20N 32°05' W 081°06'0 0.0
2017-Oct-24 20:56N 32°05' W 081°06'0 0.0
2017-Oct-24 20:26N 32°05' W 081°06'0 0.0
2017-Oct-24 19:56N 32°05' W 081°06'0 0.0
2017-Oct-24 19:26N 32°05' W 081°06'0 0.0
2017-Oct-24 18:56N 32°05' W 081°06'0 0.0
2017-Oct-24 18:26N 32°05' W 081°06'0 0.0
2017-Oct-24 17:56N 32°05' W 081°06'0 0.0
2017-Oct-24 17:26N 32°05' W 081°06'0 0.0
2017-Oct-24 16:56N 32°05' W 081°06'0 0.0
2017-Oct-24 16:26N 32°05' W 081°06'0 0.0
2017-Oct-24 15:56N 32°05' W 081°06'0 0.0
2017-Oct-24 15:26N 32°05' W 081°06'0 0.0
2017-Oct-24 14:56N 32°05' W 081°06'0 0.0
2017-Oct-24 14:26N 32°05' W 081°06'0 0.0
2017-Oct-24 13:56N 32°05' W 081°06'0 0.0
2017-Oct-24 13:26N 32°05' W 081°06'0 0.0
2017-Oct-24 12:50N 32°05' W 081°06'0 0.0
2017-Oct-24 12:26N 32°05' W 081°06'0 0.0
2017-Oct-24 11:56N 32°05' W 081°06'0 0.0
2017-Oct-24 11:20N 32°05' W 081°06'0 0.0
2017-Oct-24 10:56N 32°05' W 081°06'0 0.0
2017-Oct-24 10:30N 32°05' W 081°06'2 3.3
2017-Oct-24 10:00N 32°07' W 081°07'2 3.3
2017-Oct-24 09:30N 32°05' W 081°06'3 5.0
2017-Oct-24 09:00N 32°05' W 081°03'4 8.2
2017-Oct-24 08:30N 32°04' W 080°58'510.6
2017-Oct-24 08:00N 32°02' W 080°53'612.9
2017-Oct-24 07:30N 31°59' W 080°46'612.0
2017-Oct-24 07:01N 31°57' W 080°39'612.7
2017-Oct-24 06:30N 31°57' W 080°32'  

Dump ship's entire track history